createdAt,value
2022-10-23T00:01:38.484Z,8.38
2022-10-23T00:04:13.298Z,7.78
2022-10-23T00:06:40.706Z,9.45
2022-10-23T00:09:10.023Z,8.68
2022-10-23T00:11:37.040Z,8.35
2022-10-23T00:14:06.617Z,8.70
2022-10-23T00:16:34.224Z,8.82
2022-10-23T00:19:01.302Z,8.45
2022-10-23T00:21:28.357Z,8.63
2022-10-23T00:23:55.389Z,8.70
2022-10-23T00:26:22.337Z,8.65
2022-10-23T00:28:51.770Z,8.32
2022-10-23T00:31:20.441Z,8.35
2022-10-23T00:33:48.334Z,8.55
2022-10-23T00:36:17.765Z,8.77
2022-10-23T00:38:45.111Z,9.07
2022-10-23T00:41:18.281Z,7.70
2022-10-23T00:44:10.010Z,8.57
2022-10-23T00:46:38.880Z,8.95
2022-10-23T00:49:07.162Z,9.05
2022-10-23T00:51:45.497Z,9.18
2022-10-23T00:54:29.410Z,9.32
2022-10-23T00:57:02.152Z,8.90
2022-10-23T00:59:30.150Z,9.38
2022-10-23T01:01:57.426Z,8.68
2022-10-23T01:04:25.092Z,8.30
2022-10-23T01:07:15.147Z,8.77
2022-10-23T01:10:00.718Z,10.23
2022-10-23T01:12:30.656Z,10.50
2022-10-23T01:15:14.463Z,8.82
2022-10-23T01:17:55.510Z,9.38
2022-10-23T01:20:46.685Z,10.55
2022-10-23T01:23:58.342Z,10.93
2022-10-23T01:26:40.478Z,10.88
2022-10-23T01:29:25.505Z,11.50
2022-10-23T01:32:00.260Z,11.65
2022-10-23T01:34:37.662Z,11.48
2022-10-23T01:37:08.279Z,11.82
2022-10-23T01:39:40.644Z,12.23
2022-10-23T01:42:12.171Z,11.85
2022-10-23T01:44:47.227Z,11.00
2022-10-23T01:47:18.604Z,12.35
2022-10-23T01:49:48.498Z,11.73
2022-10-23T01:52:17.656Z,12.40
2022-10-23T01:54:46.386Z,11.60
2022-10-23T01:57:16.509Z,12.55
2022-10-23T01:59:59.147Z,12.70
2022-10-23T02:02:27.799Z,12.15
2022-10-23T02:05:10.590Z,13.73
2022-10-23T02:07:38.226Z,12.68
2022-10-23T02:10:08.262Z,13.63
2022-10-23T02:12:50.220Z,12.65
2022-10-23T02:15:45.738Z,13.85
2022-10-23T02:18:33.703Z,12.65
2022-10-23T02:21:16.618Z,13.10
2022-10-23T02:24:03.374Z,13.90
2022-10-23T02:26:59.430Z,13.98
2022-10-23T02:29:34.595Z,13.73
2022-10-23T02:32:02.200Z,13.80
2022-10-23T02:34:29.145Z,14.57
2022-10-23T02:36:56.490Z,14.93
2022-10-23T02:39:26.882Z,14.65
2022-10-23T02:42:22.223Z,13.93
2022-10-23T02:45:03.146Z,14.07
2022-10-23T02:47:47.135Z,14.80
2022-10-23T02:50:30.956Z,13.45
2022-10-23T02:53:35.930Z,13.77
2022-10-23T02:56:29.068Z,15.10
2022-10-23T02:59:14.554Z,13.98
2022-10-23T03:01:53.494Z,14.25
2022-10-23T03:04:23.711Z,14.65
2022-10-23T03:06:51.782Z,13.70
2022-10-23T03:09:19.088Z,13.43
2022-10-23T03:11:45.984Z,14.60
2022-10-23T03:14:14.159Z,14.00
2022-10-23T03:16:41.093Z,13.40
2022-10-23T03:19:07.986Z,14.90
2022-10-23T03:21:34.918Z,14.75
2022-10-23T03:24:01.755Z,13.63
2022-10-23T03:26:28.768Z,13.82
2022-10-23T03:28:55.707Z,12.63
2022-10-23T03:31:22.596Z,12.65
2022-10-23T03:33:49.512Z,12.25
2022-10-23T03:36:16.329Z,13.38
2022-10-23T03:38:43.194Z,12.52
2022-10-23T03:41:10.039Z,12.73
2022-10-23T03:43:36.946Z,13.00
2022-10-23T03:46:09.111Z,12.57
2022-10-23T03:48:39.250Z,12.55
2022-10-23T03:51:06.638Z,12.98
2022-10-23T03:53:33.685Z,13.40
2022-10-23T03:56:00.582Z,12.02
2022-10-23T03:58:27.569Z,12.68
2022-10-23T04:00:54.524Z,12.68
2022-10-23T04:03:21.379Z,12.07
2022-10-23T04:05:50.072Z,12.38
2022-10-23T04:08:20.245Z,12.82
2022-10-23T04:10:47.329Z,11.15
2022-10-23T04:13:14.247Z,12.35
2022-10-23T04:15:41.083Z,12.32
2022-10-23T04:18:07.967Z,12.63
2022-10-23T04:20:34.861Z,12.57
2022-10-23T04:23:01.735Z,12.98
2022-10-23T04:25:28.711Z,12.43
2022-10-23T04:27:55.614Z,12.88
2022-10-23T04:30:22.496Z,12.45
2022-10-23T04:32:52.789Z,12.07
2022-10-23T04:35:20.321Z,13.45
2022-10-23T04:37:47.311Z,11.85
2022-10-23T04:40:14.295Z,12.40
2022-10-23T04:42:41.424Z,12.95
2022-10-23T04:45:08.840Z,13.25
2022-10-23T04:47:35.686Z,12.43
2022-10-23T04:50:02.759Z,12.48
2022-10-23T04:52:29.681Z,12.43
2022-10-23T04:54:56.586Z,12.23
2022-10-23T04:57:23.491Z,12.45
2022-10-23T04:59:50.364Z,12.60
2022-10-23T05:02:17.291Z,13.02
2022-10-23T05:04:44.180Z,14.80
2022-10-23T05:07:11.107Z,13.25
2022-10-23T05:09:38.012Z,12.13
2022-10-23T05:12:04.929Z,12.00
2022-10-23T05:14:31.795Z,12.10
2022-10-23T05:17:07.429Z,11.50
2022-10-23T05:19:42.677Z,11.30
2022-10-23T05:22:11.083Z,11.25
2022-10-23T05:24:38.684Z,12.73
2022-10-23T05:27:05.604Z,12.85
2022-10-23T05:29:32.461Z,11.10
2022-10-23T05:32:03.077Z,11.52
2022-10-23T05:34:31.814Z,11.75
2022-10-23T05:36:58.923Z,11.02
2022-10-23T05:39:25.827Z,12.38
2022-10-23T05:41:52.683Z,11.90
2022-10-23T05:44:19.520Z,11.13
2022-10-23T05:46:46.599Z,11.65
2022-10-23T05:49:13.447Z,11.73
2022-10-23T05:51:41.186Z,12.85
2022-10-23T05:54:09.284Z,11.15
2022-10-23T05:56:42.954Z,11.90
2022-10-23T05:59:10.521Z,11.23
2022-10-23T06:01:37.762Z,10.40
2022-10-23T06:04:05.508Z,11.85
2022-10-23T06:06:32.414Z,11.30
2022-10-23T06:08:59.308Z,10.95
2022-10-23T06:11:26.210Z,11.00
2022-10-23T06:13:53.112Z,11.60
2022-10-23T06:16:22.916Z,12.32
2022-10-23T06:18:49.831Z,11.50
2022-10-23T06:21:17.276Z,11.98
2022-10-23T06:23:45.787Z,11.35
2022-10-23T06:26:15.056Z,11.82
2022-10-23T06:28:42.757Z,11.25
2022-10-23T06:31:14.995Z,10.70
2022-10-23T06:33:42.571Z,11.25
2022-10-23T06:36:10.714Z,11.75
2022-10-23T06:38:40.541Z,10.77
2022-10-23T06:41:15.670Z,11.35
2022-10-23T06:43:42.707Z,11.07
2022-10-23T06:46:10.902Z,11.88
2022-10-23T06:48:37.824Z,10.03
2022-10-23T06:51:07.250Z,10.57
2022-10-23T06:53:35.769Z,9.73
2022-10-23T06:56:03.915Z,9.70
2022-10-23T06:58:31.467Z,9.80
2022-10-23T07:01:02.957Z,9.63
2022-10-23T07:06:10.871Z,9.90
2022-10-23T07:11:09.811Z,8.40
2022-10-23T07:13:38.645Z,7.70
2022-10-23T07:16:18.074Z,7.88
2022-10-23T07:18:46.332Z,7.93
2022-10-23T07:21:13.409Z,6.90
2022-10-23T07:23:40.675Z,6.50
2022-10-23T07:26:16.871Z,5.95
2022-10-23T07:28:46.484Z,6.05
2022-10-23T07:31:14.073Z,5.70
2022-10-23T07:33:40.908Z,5.85
2022-10-23T07:36:09.154Z,6.05
2022-10-23T07:38:36.261Z,5.20
2022-10-23T07:41:03.225Z,4.97
2022-10-23T07:45:57.551Z,4.75
2022-10-23T07:48:24.780Z,4.28
2022-10-23T07:50:51.681Z,4.32
2022-10-23T07:53:21.876Z,3.65
2022-10-23T07:55:55.920Z,3.60
2022-10-23T07:58:23.137Z,2.97
2022-10-23T08:01:00.950Z,2.67
2022-10-23T08:03:29.336Z,4.45
2022-10-23T08:05:57.013Z,3.40
2022-10-23T08:08:25.093Z,3.40
2022-10-23T08:10:53.703Z,3.10
2022-10-23T08:13:21.981Z,4.25
2022-10-23T08:15:50.660Z,3.58
2022-10-23T08:18:17.892Z,2.00
2022-10-23T08:20:47.277Z,2.90
2022-10-23T08:23:17.536Z,3.72
2022-10-23T08:25:44.658Z,2.50
2022-10-23T08:28:11.674Z,2.22
2022-10-23T08:30:38.853Z,1.60
2022-10-23T08:33:06.792Z,1.50
2022-10-23T08:35:39.949Z,1.20
2022-10-23T08:38:07.364Z,3.40
2022-10-23T08:40:36.001Z,1.15
2022-10-23T08:43:02.881Z,1.30
2022-10-23T08:45:45.435Z,1.48
2022-10-23T08:48:44.154Z,0.90
2022-10-23T08:56:35.618Z,1.10
2022-10-23T09:01:35.102Z,1.15
2022-10-23T09:04:03.659Z,1.10
2022-10-23T09:07:00.132Z,0.90
2022-10-23T09:09:30.079Z,1.30
2022-10-23T09:12:08.474Z,1.00
2022-10-23T09:14:50.720Z,1.25
2022-10-23T09:17:30.773Z,1.00
2022-10-23T09:20:06.463Z,1.45
2022-10-23T09:22:33.432Z,1.20
2022-10-23T09:25:00.233Z,1.63
2022-10-23T09:27:27.120Z,1.60
2022-10-23T09:29:55.930Z,1.40
2022-10-23T09:32:37.038Z,1.08
2022-10-23T09:35:05.033Z,0.95
2022-10-23T09:37:35.599Z,1.00
2022-10-23T09:40:29.286Z,0.80
2022-10-23T09:43:15.767Z,0.98
2022-10-23T09:45:42.770Z,1.10
2022-10-23T09:48:14.580Z,2.90
2022-10-23T09:50:52.426Z,1.10
2022-10-23T09:53:23.463Z,0.88
2022-10-23T09:55:59.435Z,1.00
2022-10-23T09:58:40.290Z,0.77
2022-10-23T10:01:07.386Z,1.10
2022-10-23T10:03:34.365Z,1.00
2022-10-23T10:06:04.164Z,1.00
2022-10-23T10:08:46.430Z,1.02
2022-10-23T10:11:17.921Z,0.95
2022-10-23T10:14:06.273Z,0.93
2022-10-23T10:16:50.287Z,0.80
2022-10-23T10:19:30.683Z,0.98
2022-10-23T10:22:09.658Z,0.93
2022-10-23T10:27:26.801Z,1.50
2022-10-23T10:29:56.671Z,1.08
2022-10-23T10:32:42.196Z,1.13
2022-10-23T10:35:38.266Z,1.00
2022-10-23T10:38:26.861Z,1.00
2022-10-23T10:41:14.341Z,1.58
2022-10-23T10:43:53.563Z,1.00
2022-10-23T10:46:35.423Z,0.95
2022-10-23T10:49:20.794Z,0.77
2022-10-23T10:52:11.810Z,1.02
2022-10-23T10:54:56.682Z,1.17
2022-10-23T10:57:32.145Z,1.17
2022-10-23T11:00:05.439Z,1.80
2022-10-23T11:02:41.563Z,1.58
2022-10-23T11:05:33.375Z,1.20
2022-10-23T11:08:24.974Z,1.25
2022-10-23T11:10:57.110Z,1.48
2022-10-23T11:13:28.730Z,1.23
2022-10-23T11:16:02.096Z,1.42
2022-10-23T11:18:31.202Z,1.25
2022-10-23T11:21:10.335Z,1.65
2022-10-23T11:23:55.426Z,1.33
2022-10-23T11:26:40.396Z,1.50
2022-10-23T11:29:30.243Z,1.52
2022-10-23T11:32:29.302Z,1.48
2022-10-23T11:35:31.012Z,2.90
2022-10-23T11:38:13.015Z,1.48
2022-10-23T11:44:01.533Z,1.55
2022-10-23T11:46:37.255Z,1.40
2022-10-23T11:49:06.547Z,1.20
2022-10-23T11:51:33.800Z,1.30
2022-10-23T11:54:15.391Z,1.23
2022-10-23T11:57:12.310Z,1.17
2022-10-23T11:59:48.084Z,1.00
2022-10-23T12:02:38.491Z,1.50
2022-10-23T12:05:09.903Z,1.67
2022-10-23T12:07:40.285Z,1.80
2022-10-23T12:10:30.879Z,1.80
2022-10-23T12:13:00.808Z,1.60
2022-10-23T12:15:28.762Z,1.33
2022-10-23T12:18:08.460Z,2.03
2022-10-23T12:21:16.963Z,1.52
2022-10-23T12:24:09.794Z,1.45
2022-10-23T12:27:04.584Z,1.20
2022-10-23T12:29:57.276Z,1.10
2022-10-23T12:32:48.556Z,1.20
2022-10-23T12:35:18.650Z,1.00
2022-10-23T12:38:09.080Z,0.90
2022-10-23T12:40:36.052Z,1.25
2022-10-23T12:43:03.064Z,1.40
2022-10-23T12:45:39.803Z,1.30
2022-10-23T12:48:06.655Z,1.55
2022-10-23T12:50:34.490Z,1.50
2022-10-23T12:53:06.824Z,1.48
2022-10-23T12:56:02.765Z,1.25
2022-10-23T12:58:32.338Z,1.15
2022-10-23T13:01:02.174Z,1.27
2022-10-23T13:03:31.186Z,1.30
2022-10-23T13:08:34.455Z,1.40
2022-10-23T13:11:01.451Z,1.63
2022-10-23T13:13:28.885Z,1.60
2022-10-23T13:15:55.803Z,1.30
2022-10-23T13:18:22.772Z,1.50
2022-10-23T13:20:52.679Z,1.33
2022-10-23T13:23:24.862Z,1.48
2022-10-23T13:25:55.764Z,1.40
2022-10-23T13:28:22.619Z,1.40
2022-10-23T13:31:21.413Z,1.33
2022-10-23T13:36:23.856Z,1.52
2022-10-23T13:39:13.721Z,2.15
2022-10-23T13:41:45.219Z,1.50
2022-10-23T13:44:14.445Z,1.50
2022-10-23T13:46:42.345Z,1.70
2022-10-23T13:49:10.043Z,1.77
2022-10-23T13:52:03.875Z,1.60
2022-10-23T13:54:30.797Z,1.73
2022-10-23T13:56:57.910Z,1.67
2022-10-23T13:59:24.815Z,2.10
2022-10-23T14:01:52.423Z,1.90
2022-10-23T14:04:20.277Z,1.77
2022-10-23T14:06:47.337Z,1.92
2022-10-23T14:09:17.410Z,1.85
2022-10-23T14:11:44.555Z,1.55
2022-10-23T14:14:11.714Z,1.73
2022-10-23T14:16:38.713Z,1.70
2022-10-23T14:19:05.890Z,2.03
2022-10-23T14:21:32.739Z,2.13
2022-10-23T14:23:59.739Z,2.30
2022-10-23T14:26:30.222Z,2.05
2022-10-23T14:29:00.639Z,2.00
2022-10-23T14:31:31.286Z,2.00
2022-10-23T14:34:00.863Z,2.25
2022-10-23T14:36:38.410Z,2.30
2022-10-23T14:39:16.076Z,3.28
2022-10-23T14:41:43.018Z,2.30
2022-10-23T14:44:09.910Z,2.60
2022-10-23T14:46:38.483Z,2.15
2022-10-23T14:49:06.018Z,2.50
2022-10-23T14:51:33.163Z,2.63
2022-10-23T14:54:02.259Z,1.95
2022-10-23T14:56:30.914Z,2.78
2022-10-23T14:59:02.738Z,2.35
2022-10-23T15:01:45.099Z,1.98
2022-10-23T15:04:14.861Z,2.85
2022-10-23T15:06:42.673Z,2.20
2022-10-23T15:09:09.649Z,2.30
2022-10-23T15:11:36.539Z,2.58
2022-10-23T15:14:03.437Z,2.38
2022-10-23T15:16:30.410Z,2.45
2022-10-23T15:18:57.455Z,2.10
2022-10-23T15:21:24.400Z,2.85
2022-10-23T15:23:51.290Z,2.60
2022-10-23T15:26:21.922Z,2.78
2022-10-23T15:28:54.341Z,2.15
2022-10-23T15:31:30.329Z,2.25
2022-10-23T15:33:58.064Z,2.28
2022-10-23T15:36:25.436Z,2.60
2022-10-23T15:38:52.574Z,2.80
2022-10-23T15:41:31.271Z,2.78
2022-10-23T15:44:03.107Z,2.42
2022-10-23T15:46:30.009Z,2.83
2022-10-23T15:48:57.032Z,2.08
2022-10-23T15:51:23.880Z,2.05
2022-10-23T15:53:50.983Z,2.22
2022-10-23T15:56:18.002Z,2.80
2022-10-23T15:58:45.915Z,2.47
2022-10-23T16:01:12.992Z,2.28
2022-10-23T16:03:39.926Z,2.80
2022-10-23T16:06:09.383Z,2.85
2022-10-23T16:08:37.078Z,2.28
2022-10-23T16:11:05.322Z,3.25
2022-10-23T16:13:32.164Z,2.60
2022-10-23T16:16:03.588Z,2.50
2022-10-23T16:18:30.493Z,2.55
2022-10-23T16:20:57.379Z,2.72
2022-10-23T16:23:24.293Z,2.95
2022-10-23T16:25:51.279Z,2.90
2022-10-23T16:28:18.101Z,2.45
2022-10-23T16:30:46.356Z,2.63
2022-10-23T16:33:13.723Z,2.53
2022-10-23T16:35:40.647Z,2.38
2022-10-23T16:38:07.504Z,2.88
2022-10-23T16:40:34.401Z,2.40
2022-10-23T16:43:01.233Z,2.42
2022-10-23T16:45:28.189Z,2.38
2022-10-23T16:47:55.112Z,2.20
2022-10-23T16:50:21.975Z,2.45
2022-10-23T16:52:50.973Z,2.63
2022-10-23T16:55:20.293Z,2.10
2022-10-23T16:57:47.163Z,2.33
2022-10-23T17:00:14.476Z,2.78
2022-10-23T17:02:41.534Z,3.10
2022-10-23T17:05:08.798Z,2.70
2022-10-23T17:07:37.200Z,2.05
2022-10-23T17:10:04.651Z,2.63
2022-10-23T17:12:31.769Z,2.15
2022-10-23T17:14:58.624Z,2.50
2022-10-23T17:17:25.523Z,2.70
2022-10-23T17:19:52.426Z,2.40
2022-10-23T17:22:19.440Z,2.88
2022-10-23T17:24:48.920Z,2.70
2022-10-23T17:27:18.765Z,2.45
2022-10-23T17:29:45.667Z,2.85
2022-10-23T17:32:12.756Z,2.13
2022-10-23T17:34:39.801Z,2.70
2022-10-23T17:37:06.730Z,2.45
2022-10-23T17:39:33.655Z,2.17
2022-10-23T17:42:00.563Z,2.33
2022-10-23T17:44:29.220Z,2.60
2022-10-23T17:46:56.222Z,2.95
2022-10-23T17:49:24.241Z,2.92
2022-10-23T17:51:53.616Z,2.55
2022-10-23T17:54:20.566Z,2.72
2022-10-23T17:56:47.562Z,2.50
2022-10-23T17:59:16.606Z,2.88
2022-10-23T18:04:19.040Z,17.83
2022-10-23T18:06:52.865Z,8.85
2022-10-23T18:09:22.018Z,3.13
2022-10-23T18:14:20.519Z,2.88
2022-10-23T18:16:48.125Z,2.45
2022-10-23T18:19:18.255Z,2.53
2022-10-23T18:21:45.736Z,2.50
2022-10-23T18:24:12.982Z,2.92
2022-10-23T18:26:41.484Z,3.05
2022-10-23T18:29:09.900Z,3.03
2022-10-23T18:31:37.845Z,2.80
2022-10-23T18:34:13.733Z,2.50
2022-10-23T18:36:41.507Z,3.40
2022-10-23T18:39:12.244Z,3.13
2022-10-23T18:41:41.934Z,3.13
2022-10-23T18:44:09.833Z,3.13
2022-10-23T18:46:37.455Z,3.10
2022-10-23T18:49:04.810Z,2.92
2022-10-23T18:51:34.331Z,3.28
2022-10-23T18:54:03.802Z,2.90
2022-10-23T18:56:31.077Z,3.00
2022-10-23T18:58:59.646Z,3.13
2022-10-23T19:01:27.951Z,2.70
2022-10-23T19:06:30.298Z,3.78
2022-10-23T19:08:57.650Z,2.50
2022-10-23T19:11:26.048Z,2.90
2022-10-23T19:13:52.924Z,3.20
2022-10-23T19:16:27.587Z,2.45
2022-10-23T19:18:58.953Z,2.70
2022-10-23T19:21:31.781Z,2.70
2022-10-23T19:24:05.295Z,2.45
2022-10-23T19:26:34.390Z,2.63
2022-10-23T19:29:01.814Z,2.60
2022-10-23T19:31:28.821Z,2.55
2022-10-23T19:33:55.715Z,2.60
2022-10-23T19:36:23.697Z,2.75
2022-10-23T19:38:50.887Z,3.13
2022-10-23T19:41:18.915Z,2.80
2022-10-23T19:43:45.807Z,3.03
2022-10-23T19:46:12.698Z,2.70
2022-10-23T19:48:44.546Z,2.83
2022-10-23T19:51:13.328Z,3.10
2022-10-23T19:53:42.082Z,3.13
2022-10-23T19:56:11.804Z,2.70
2022-10-23T19:58:39.444Z,3.05
2022-10-23T20:01:16.791Z,2.88
2022-10-23T20:03:50.435Z,2.67
2022-10-23T20:06:21.012Z,2.47
2022-10-23T20:08:48.155Z,2.35
2022-10-23T20:11:20.404Z,2.40
2022-10-23T20:13:48.877Z,2.70
2022-10-23T20:16:31.280Z,2.75
2022-10-23T20:18:58.317Z,2.75
2022-10-23T20:21:26.105Z,2.85
2022-10-23T20:23:53.150Z,2.50
2022-10-23T20:26:23.454Z,2.35
2022-10-23T20:28:54.263Z,2.90
2022-10-23T20:31:23.681Z,2.50
2022-10-23T20:33:51.506Z,2.15
2022-10-23T20:36:33.987Z,2.53
2022-10-23T20:39:07.267Z,2.60
2022-10-23T20:41:37.189Z,2.60
2022-10-23T20:44:05.819Z,2.60
2022-10-23T20:46:32.938Z,2.45
2022-10-23T20:49:00.267Z,2.58
2022-10-23T20:51:27.414Z,2.50
2022-10-23T20:53:54.815Z,2.50
2022-10-23T20:56:31.095Z,2.38
2022-10-23T20:59:05.853Z,2.28
2022-10-23T21:01:33.576Z,2.00
2022-10-23T21:04:02.447Z,2.60
2022-10-23T21:06:45.807Z,2.22
2022-10-23T21:09:20.845Z,2.45
2022-10-23T21:11:47.886Z,2.15
2022-10-23T21:14:14.832Z,2.47
2022-10-23T21:16:44.471Z,2.90
2022-10-23T21:19:14.497Z,2.38
2022-10-23T21:21:41.696Z,2.35
2022-10-23T21:24:12.794Z,2.35
2022-10-23T21:26:39.728Z,2.17
2022-10-23T21:29:17.866Z,2.10
2022-10-23T21:31:45.766Z,2.50
2022-10-23T21:34:12.694Z,2.65
2022-10-23T21:36:53.827Z,2.53
2022-10-23T21:39:26.428Z,2.25
2022-10-23T21:41:53.494Z,2.08
2022-10-23T21:44:20.327Z,2.65
2022-10-23T21:46:47.292Z,2.60
2022-10-23T21:49:14.249Z,2.53
2022-10-23T21:51:41.100Z,2.45
2022-10-23T21:54:12.574Z,2.72
2022-10-23T21:56:45.354Z,2.33
2022-10-23T21:59:18.835Z,2.25
2022-10-23T22:01:47.577Z,2.70
2022-10-23T22:04:17.333Z,2.42
2022-10-23T22:06:45.616Z,2.90
2022-10-23T22:09:14.853Z,2.67
2022-10-23T22:11:42.234Z,2.85
2022-10-23T22:14:09.177Z,3.10
2022-10-23T22:16:36.360Z,2.38
2022-10-23T22:19:03.801Z,2.85
2022-10-23T22:21:30.911Z,3.10
2022-10-23T22:23:59.841Z,2.83
2022-10-23T22:29:08.727Z,2.65
2022-10-23T22:31:36.793Z,2.70
2022-10-23T22:34:18.533Z,2.90
2022-10-23T22:36:53.904Z,3.35
2022-10-23T22:39:21.242Z,2.53
2022-10-23T22:41:48.288Z,3.10
2022-10-23T22:44:15.665Z,2.78
2022-10-23T22:46:42.626Z,3.03
2022-10-23T22:49:10.262Z,2.60
2022-10-23T22:51:38.159Z,2.78
2022-10-23T22:54:05.316Z,2.90
2022-10-23T22:56:32.237Z,2.75
2022-10-23T22:58:59.397Z,3.40
2022-10-23T23:01:42.567Z,3.00
2022-10-23T23:04:25.977Z,2.80
2022-10-23T23:06:58.054Z,2.90
2022-10-23T23:09:24.910Z,2.53
2022-10-23T23:11:52.584Z,3.10
2022-10-23T23:14:23.598Z,3.05
2022-10-23T23:16:52.482Z,3.20
2022-10-23T23:19:19.863Z,2.72
2022-10-23T23:21:46.809Z,2.88
2022-10-23T23:24:13.998Z,2.85
2022-10-23T23:26:40.842Z,2.92
2022-10-23T23:29:07.944Z,2.90
2022-10-23T23:31:34.864Z,3.28
2022-10-23T23:34:01.832Z,2.72
2022-10-23T23:36:29.152Z,2.88
2022-10-23T23:38:57.811Z,3.00
2022-10-23T23:41:26.491Z,2.90
2022-10-23T23:43:55.159Z,3.10
2022-10-23T23:46:22.634Z,3.50
2022-10-23T23:48:50.082Z,3.53
2022-10-23T23:51:22.091Z,3.72
2022-10-23T23:53:49.859Z,3.88
2022-10-23T23:56:17.162Z,4.00
2022-10-23T23:58:44.189Z,3.90
